WMT1717 LUKK-LIMC
Flight info
| Callsign | WMT1717 |
|---|---|
| Flight time | 2h 17m |
| Altitude | 38000 |
| Route | POGAV DCT DEGET DCT MAVIR DCT KOPRY DCT RIFEN DCT VIC DCT ADOSA DCT IDREK DCT ELTAR DCT NOBMI DCT NEVNI DCT OSKOR L615 PEXUG |
| Aircraft | A20N/M-SDE1E2E3FGIJ1J4RWXY/LB1 |
Departure
| Time | 2026-05-01 08:09 |
|---|---|
| Airport | Chişinău International Airport (LUKK) |
Arrival
| Time | 2026-05-01 10:26 |
|---|---|
| Airport | Milan Malpensa International Airport (LIMC) |
| Time | Latitude | Longitude | Altitude | Speed | Heading |
|---|---|---|---|---|---|
| 2026-05-01 07:40 | 46.93364 | 28.93668 | 313 ft | 0 kts | 8° |
| 2026-05-01 07:59 | 46.93366 | 28.93669 | 313 ft | 0 kts | 7° |
| 2026-05-01 08:03 | 46.93367 | 28.93669 | 313 ft | 0 kts | 8° |
| 2026-05-01 08:03 | 46.93410 | 28.93594 | 315 ft | 10 kts | 276° |
| 2026-05-01 08:04 | 46.93348 | 28.93455 | 318 ft | 9 kts | 189° |
| 2026-05-01 08:04 | 46.93224 | 28.93461 | 318 ft | 8 kts | 185° |
| 2026-05-01 08:05 | 46.93163 | 28.93315 | 321 ft | 15 kts | 278° |
| 2026-05-01 08:05 | 46.93179 | 28.93123 | 324 ft | 22 kts | 276° |
| 2026-05-01 08:05 | 46.93200 | 28.92869 | 329 ft | 26 kts | 278° |
| 2026-05-01 08:06 | 46.93239 | 28.92395 | 341 ft | 19 kts | 273° |
| 2026-05-01 08:06 | 46.93259 | 28.92115 | 356 ft | 9 kts | 276° |
| 2026-05-01 08:07 | 46.93115 | 28.91994 | 361 ft | 19 kts | 189° |
| 2026-05-01 08:07 | 46.92853 | 28.91996 | 363 ft | 12 kts | 178° |
| 2026-05-01 08:08 | 46.92771 | 28.92039 | 362 ft | 14 kts | 121° |
| 2026-05-01 08:08 | 46.92789 | 28.93643 | 313 ft | 150 kts | 86° |
| 2026-05-01 08:09 | 46.92826 | 28.96991 | 1580 ft | 166 kts | 87° |
| 2026-05-01 08:09 | 46.92856 | 28.98656 | 2313 ft | 172 kts | 86° |
| 2026-05-01 08:09 | 46.92909 | 29.00515 | 2842 ft | 190 kts | 85° |
| 2026-05-01 08:10 | 46.92938 | 29.04812 | 3886 ft | 235 kts | 98° |
| 2026-05-01 08:10 | 46.90711 | 29.08490 | 5207 ft | 274 kts | 166° |
| 2026-05-01 08:11 | 46.87305 | 29.06745 | 7204 ft | 279 kts | 233° |
| 2026-05-01 08:11 | 46.86533 | 29.01333 | 9019 ft | 282 kts | 273° |
| 2026-05-01 08:12 | 46.86729 | 28.95529 | 10696 ft | 291 kts | 272° |
| 2026-05-01 08:12 | 46.86781 | 28.92554 | 11375 ft | 300 kts | 271° |
| 2026-05-01 08:12 | 46.86795 | 28.86365 | 12943 ft | 309 kts | 270° |
| 2026-05-01 08:13 | 46.86774 | 28.83191 | 13721 ft | 313 kts | 270° |
| 2026-05-01 08:13 | 46.86740 | 28.80034 | 14467 ft | 317 kts | 270° |
| 2026-05-01 08:13 | 46.86654 | 28.73530 | 15946 ft | 325 kts | 270° |
| 2026-05-01 08:14 | 46.86609 | 28.70225 | 16665 ft | 328 kts | 271° |
| 2026-05-01 08:14 | 46.86563 | 28.66865 | 17377 ft | 331 kts | 271° |
| 2026-05-01 08:14 | 46.86515 | 28.63480 | 18072 ft | 334 kts | 271° |
| 2026-05-01 08:14 | 46.86467 | 28.60084 | 18756 ft | 337 kts | 271° |
| 2026-05-01 08:15 | 46.86417 | 28.56647 | 19424 ft | 340 kts | 271° |
| 2026-05-01 08:15 | 46.86315 | 28.49725 | 20719 ft | 345 kts | 271° |
| 2026-05-01 08:15 | 46.86263 | 28.46188 | 21367 ft | 348 kts | 272° |
| 2026-05-01 08:16 | 46.86209 | 28.42672 | 22003 ft | 350 kts | 271° |
| 2026-05-01 08:16 | 46.86154 | 28.39131 | 22633 ft | 352 kts | 272° |
| 2026-05-01 08:16 | 46.86095 | 28.35540 | 23254 ft | 354 kts | 272° |
| 2026-05-01 08:16 | 46.86036 | 28.31928 | 23860 ft | 357 kts | 271° |
| 2026-05-01 08:17 | 46.85975 | 28.28295 | 24454 ft | 359 kts | 271° |
| 2026-05-01 08:17 | 46.85912 | 28.24639 | 25024 ft | 361 kts | 271° |
| 2026-05-01 08:17 | 46.85846 | 28.20948 | 25572 ft | 364 kts | 271° |
| 2026-05-01 08:17 | 46.85780 | 28.17269 | 26025 ft | 369 kts | 271° |
| 2026-05-01 08:18 | 46.85712 | 28.13477 | 26536 ft | 371 kts | 271° |
| 2026-05-01 08:18 | 46.85568 | 28.05913 | 27587 ft | 375 kts | 271° |
| 2026-05-01 08:19 | 46.85421 | 27.98298 | 28558 ft | 378 kts | 270° |
| 2026-05-01 08:19 | 46.85343 | 27.94432 | 29001 ft | 380 kts | 271° |
| 2026-05-01 08:19 | 46.85265 | 27.90556 | 29417 ft | 382 kts | 270° |
| 2026-05-01 08:19 | 46.85185 | 27.86705 | 29835 ft | 384 kts | 270° |
| 2026-05-01 08:20 | 46.85102 | 27.82825 | 30256 ft | 384 kts | 270° |
| 2026-05-01 08:20 | 46.85017 | 27.78879 | 30628 ft | 386 kts | 270° |
| 2026-05-01 08:20 | 46.84931 | 27.74952 | 30988 ft | 388 kts | 270° |
| 2026-05-01 08:20 | 46.84845 | 27.71070 | 31324 ft | 389 kts | 270° |
| 2026-05-01 08:21 | 46.84755 | 27.67069 | 31646 ft | 391 kts | 270° |
| 2026-05-01 08:21 | 46.84666 | 27.63157 | 31956 ft | 392 kts | 270° |
| 2026-05-01 08:21 | 46.84572 | 27.59149 | 32265 ft | 394 kts | 270° |
| 2026-05-01 08:21 | 46.84477 | 27.55138 | 32546 ft | 396 kts | 269° |
| 2026-05-01 08:22 | 46.84382 | 27.51135 | 32847 ft | 397 kts | 269° |
| 2026-05-01 08:22 | 46.84285 | 27.47118 | 33146 ft | 398 kts | 269° |
| 2026-05-01 08:22 | 46.84188 | 27.43085 | 33481 ft | 397 kts | 269° |
| 2026-05-01 08:22 | 46.84089 | 27.39074 | 33872 ft | 395 kts | 269° |
| 2026-05-01 08:23 | 46.83987 | 27.35063 | 34232 ft | 394 kts | 269° |
| 2026-05-01 08:23 | 46.83882 | 27.31044 | 34565 ft | 393 kts | 268° |
| 2026-05-01 08:23 | 46.83776 | 27.27054 | 34905 ft | 392 kts | 268° |
| 2026-05-01 08:23 | 46.83670 | 27.23094 | 35225 ft | 392 kts | 268° |
| 2026-05-01 08:24 | 46.83565 | 27.19118 | 35495 ft | 392 kts | 268° |
| 2026-05-01 08:24 | 46.83457 | 27.15143 | 35772 ft | 392 kts | 268° |
| 2026-05-01 08:24 | 46.83350 | 27.11209 | 36072 ft | 391 kts | 268° |
| 2026-05-01 08:24 | 46.83241 | 27.07256 | 36345 ft | 391 kts | 268° |
| 2026-05-01 08:25 | 46.83131 | 27.03276 | 36615 ft | 390 kts | 268° |
| 2026-05-01 08:25 | 46.83022 | 26.99343 | 36800 ft | 391 kts | 267° |
| 2026-05-01 08:25 | 46.82908 | 26.95320 | 36971 ft | 393 kts | 267° |
| 2026-05-01 08:25 | 46.82794 | 26.91372 | 37124 ft | 395 kts | 266° |
| 2026-05-01 08:26 | 46.82675 | 26.87348 | 37292 ft | 396 kts | 266° |
| 2026-05-01 08:26 | 46.82554 | 26.83327 | 37430 ft | 398 kts | 266° |
| 2026-05-01 08:26 | 46.82431 | 26.79254 | 37578 ft | 400 kts | 266° |
| 2026-05-01 08:26 | 46.82305 | 26.75206 | 37754 ft | 400 kts | 266° |
| 2026-05-01 08:27 | 46.82178 | 26.71140 | 37922 ft | 401 kts | 266° |
| 2026-05-01 08:27 | 46.82052 | 26.67089 | 38072 ft | 402 kts | 266° |
| 2026-05-01 08:27 | 46.81923 | 26.63045 | 38219 ft | 403 kts | 266° |
| 2026-05-01 08:27 | 46.81791 | 26.58963 | 38346 ft | 405 kts | 266° |
| 2026-05-01 08:28 | 46.81656 | 26.54854 | 38351 ft | 405 kts | 266° |
| 2026-05-01 08:28 | 46.81387 | 26.46621 | 38362 ft | 406 kts | 266° |
| 2026-05-01 08:29 | 46.81112 | 26.38386 | 38361 ft | 406 kts | 266° |
| 2026-05-01 08:29 | 46.80833 | 26.30204 | 38364 ft | 406 kts | 265° |
| 2026-05-01 08:30 | 46.80545 | 26.21978 | 38357 ft | 405 kts | 266° |
| 2026-05-01 08:30 | 46.80254 | 26.13800 | 38351 ft | 404 kts | 265° |
| 2026-05-01 08:31 | 46.79953 | 26.05589 | 38351 ft | 405 kts | 265° |
| 2026-05-01 08:31 | 46.79647 | 25.97354 | 38352 ft | 406 kts | 265° |
| 2026-05-01 08:32 | 46.79335 | 25.89148 | 38356 ft | 405 kts | 265° |
| 2026-05-01 08:32 | 46.79017 | 25.80932 | 38352 ft | 405 kts | 266° |
| 2026-05-01 08:33 | 46.78696 | 25.72718 | 38349 ft | 406 kts | 265° |
| 2026-05-01 08:33 | 46.78370 | 25.64487 | 38345 ft | 406 kts | 265° |
| 2026-05-01 08:34 | 46.78030 | 25.56287 | 38344 ft | 404 kts | 266° |
| 2026-05-01 08:34 | 46.77690 | 25.48087 | 38346 ft | 406 kts | 265° |
| 2026-05-01 08:35 | 46.77345 | 25.39883 | 38355 ft | 405 kts | 265° |
| 2026-05-01 08:35 | 46.76991 | 25.31659 | 38364 ft | 405 kts | 265° |
| 2026-05-01 08:36 | 46.76635 | 25.23492 | 38363 ft | 405 kts | 265° |
| 2026-05-01 08:36 | 46.76275 | 25.15270 | 38364 ft | 405 kts | 265° |
| 2026-05-01 08:37 | 46.75906 | 25.07121 | 38363 ft | 404 kts | 264° |
| 2026-05-01 08:37 | 46.75530 | 24.98944 | 38362 ft | 404 kts | 264° |
| 2026-05-01 08:38 | 46.75151 | 24.90794 | 38364 ft | 404 kts | 264° |
| 2026-05-01 08:38 | 46.74764 | 24.82628 | 38364 ft | 404 kts | 264° |
| 2026-05-01 08:39 | 46.74372 | 24.74448 | 38360 ft | 404 kts | 265° |
| 2026-05-01 08:39 | 46.73976 | 24.66299 | 38365 ft | 404 kts | 264° |
| 2026-05-01 08:40 | 46.73371 | 24.54099 | 38366 ft | 404 kts | 265° |
| 2026-05-01 08:40 | 46.72959 | 24.45960 | 38364 ft | 404 kts | 265° |
| 2026-05-01 08:41 | 46.72541 | 24.37771 | 38364 ft | 404 kts | 264° |
| 2026-05-01 08:41 | 46.72117 | 24.29614 | 38365 ft | 404 kts | 264° |
| 2026-05-01 08:42 | 46.71692 | 24.21478 | 38366 ft | 404 kts | 264° |
| 2026-05-01 08:42 | 46.71256 | 24.13329 | 38363 ft | 403 kts | 264° |
| 2026-05-01 08:43 | 46.70818 | 24.05201 | 38362 ft | 404 kts | 264° |
| 2026-05-01 08:43 | 46.70370 | 23.97008 | 38363 ft | 404 kts | 264° |
| 2026-05-01 08:44 | 46.69919 | 23.88888 | 38363 ft | 403 kts | 264° |
| 2026-05-01 08:44 | 46.69455 | 23.80699 | 38362 ft | 404 kts | 264° |
| 2026-05-01 08:45 | 46.68991 | 23.72552 | 38367 ft | 404 kts | 264° |
| 2026-05-01 08:45 | 46.68525 | 23.64460 | 38363 ft | 403 kts | 264° |
| 2026-05-01 08:46 | 46.68051 | 23.56311 | 38366 ft | 403 kts | 264° |
| 2026-05-01 08:46 | 46.67566 | 23.48188 | 38364 ft | 403 kts | 264° |
| 2026-05-01 08:47 | 46.67081 | 23.40087 | 38363 ft | 404 kts | 264° |
| 2026-05-01 08:47 | 46.66591 | 23.31951 | 38366 ft | 403 kts | 263° |
| 2026-05-01 08:48 | 46.66095 | 23.23830 | 38366 ft | 403 kts | 263° |
| 2026-05-01 08:48 | 46.65595 | 23.15723 | 38363 ft | 404 kts | 263° |
| 2026-05-01 08:49 | 46.65084 | 23.07612 | 38363 ft | 403 kts | 263° |
| 2026-05-01 08:49 | 46.64564 | 22.99444 | 38366 ft | 404 kts | 264° |
| 2026-05-01 08:50 | 46.64033 | 22.91340 | 38364 ft | 405 kts | 266° |
| 2026-05-01 08:50 | 46.63497 | 22.83133 | 38358 ft | 410 kts | 267° |
| 2026-05-01 08:51 | 46.62960 | 22.74845 | 38364 ft | 416 kts | 268° |
| 2026-05-01 08:51 | 46.62414 | 22.66509 | 38364 ft | 416 kts | 268° |
| 2026-05-01 08:52 | 46.61853 | 22.58114 | 38365 ft | 417 kts | 267° |
| 2026-05-01 08:52 | 46.61283 | 22.49696 | 38364 ft | 417 kts | 267° |
| 2026-05-01 08:53 | 46.60710 | 22.41320 | 38361 ft | 417 kts | 267° |
| 2026-05-01 08:53 | 46.60131 | 22.32952 | 38365 ft | 418 kts | 266° |
| 2026-05-01 08:54 | 46.59542 | 22.24529 | 38365 ft | 418 kts | 266° |
| 2026-05-01 08:54 | 46.58949 | 22.16133 | 38360 ft | 418 kts | 266° |
| 2026-05-01 08:55 | 46.58349 | 22.07730 | 38362 ft | 418 kts | 266° |
| 2026-05-01 08:55 | 46.57744 | 21.99345 | 38364 ft | 418 kts | 267° |
| 2026-05-01 08:56 | 46.57127 | 21.90918 | 38363 ft | 418 kts | 266° |
| 2026-05-01 08:56 | 46.56504 | 21.82517 | 38364 ft | 418 kts | 266° |
| 2026-05-01 08:57 | 46.55877 | 21.74129 | 38363 ft | 418 kts | 266° |
| 2026-05-01 08:57 | 46.55248 | 21.65769 | 38364 ft | 418 kts | 266° |
| 2026-05-01 08:58 | 46.54615 | 21.57400 | 38362 ft | 418 kts | 266° |
| 2026-05-01 08:58 | 46.53969 | 21.48947 | 38365 ft | 418 kts | 266° |
| 2026-05-01 08:59 | 46.53317 | 21.40559 | 38363 ft | 418 kts | 266° |
| 2026-05-01 08:59 | 46.52661 | 21.32197 | 38365 ft | 418 kts | 266° |
| 2026-05-01 09:00 | 46.51990 | 21.23800 | 38365 ft | 418 kts | 266° |
| 2026-05-01 09:00 | 46.51337 | 21.15454 | 38362 ft | 418 kts | 266° |
| 2026-05-01 09:01 | 46.50666 | 21.07116 | 38365 ft | 418 kts | 266° |
| 2026-05-01 09:01 | 46.49976 | 20.98734 | 38364 ft | 416 kts | 268° |
| 2026-05-01 09:02 | 46.49284 | 20.90352 | 38365 ft | 417 kts | 269° |
| 2026-05-01 09:02 | 46.48602 | 20.82059 | 38365 ft | 417 kts | 269° |
| 2026-05-01 09:03 | 46.47909 | 20.73680 | 38368 ft | 417 kts | 269° |
| 2026-05-01 09:03 | 46.47204 | 20.65283 | 38371 ft | 417 kts | 269° |
| 2026-05-01 09:04 | 46.46496 | 20.56948 | 38375 ft | 417 kts | 269° |
| 2026-05-01 09:04 | 46.45781 | 20.48601 | 38379 ft | 417 kts | 269° |
| 2026-05-01 09:05 | 46.45059 | 20.40269 | 38384 ft | 417 kts | 269° |
| 2026-05-01 09:05 | 46.44329 | 20.31909 | 38389 ft | 418 kts | 268° |
| 2026-05-01 09:06 | 46.43598 | 20.23576 | 38392 ft | 418 kts | 268° |
| 2026-05-01 09:06 | 46.42853 | 20.15205 | 38392 ft | 418 kts | 268° |
| 2026-05-01 09:07 | 46.42101 | 20.06859 | 38393 ft | 418 kts | 268° |
| 2026-05-01 09:07 | 46.41340 | 19.98511 | 38393 ft | 418 kts | 268° |
| 2026-05-01 09:08 | 46.40574 | 19.90167 | 38393 ft | 418 kts | 268° |
| 2026-05-01 09:08 | 46.39866 | 19.81835 | 38393 ft | 416 kts | 271° |
| 2026-05-01 09:09 | 46.39491 | 19.73498 | 38393 ft | 415 kts | 272° |
| 2026-05-01 09:09 | 46.39133 | 19.65146 | 38393 ft | 415 kts | 272° |
| 2026-05-01 09:10 | 46.38768 | 19.56842 | 38393 ft | 415 kts | 272° |
| 2026-05-01 09:10 | 46.38395 | 19.48531 | 38393 ft | 415 kts | 272° |
| 2026-05-01 09:11 | 46.38015 | 19.40204 | 38393 ft | 415 kts | 272° |
| 2026-05-01 09:11 | 46.37626 | 19.31846 | 38393 ft | 415 kts | 271° |
| 2026-05-01 09:12 | 46.37233 | 19.23552 | 38393 ft | 415 kts | 271° |
| 2026-05-01 09:12 | 46.36826 | 19.15198 | 38394 ft | 414 kts | 272° |
| 2026-05-01 09:13 | 46.36410 | 19.06931 | 38394 ft | 411 kts | 274° |
| 2026-05-01 09:13 | 46.35996 | 18.98721 | 38394 ft | 407 kts | 276° |
| 2026-05-01 09:14 | 46.35590 | 18.90574 | 38393 ft | 404 kts | 276° |
| 2026-05-01 09:14 | 46.35190 | 18.82512 | 38393 ft | 404 kts | 276° |
| 2026-05-01 09:15 | 46.34778 | 18.74429 | 38392 ft | 403 kts | 276° |
| 2026-05-01 09:15 | 46.34356 | 18.66341 | 38393 ft | 403 kts | 276° |
| 2026-05-01 09:16 | 46.33921 | 18.58232 | 38393 ft | 403 kts | 276° |
| 2026-05-01 09:17 | 46.33263 | 18.46068 | 38393 ft | 403 kts | 276° |
| 2026-05-01 09:17 | 46.32595 | 18.33933 | 38393 ft | 404 kts | 275° |
| 2026-05-01 09:18 | 46.31908 | 18.21806 | 38392 ft | 404 kts | 275° |
| 2026-05-01 09:19 | 46.31210 | 18.09659 | 38392 ft | 404 kts | 275° |
| 2026-05-01 09:20 | 46.30502 | 17.97510 | 38393 ft | 404 kts | 275° |
| 2026-05-01 09:21 | 46.29536 | 17.81312 | 38393 ft | 404 kts | 275° |
| 2026-05-01 09:21 | 46.28798 | 17.69191 | 38394 ft | 404 kts | 275° |
| 2026-05-01 09:22 | 46.27793 | 17.53030 | 38405 ft | 404 kts | 275° |
| 2026-05-01 09:23 | 46.27025 | 17.40925 | 38415 ft | 404 kts | 275° |
| 2026-05-01 09:24 | 46.26239 | 17.28807 | 38418 ft | 405 kts | 275° |
| 2026-05-01 09:25 | 46.25167 | 17.12647 | 38419 ft | 405 kts | 275° |
| 2026-05-01 09:26 | 46.24347 | 17.00528 | 38419 ft | 404 kts | 275° |
| 2026-05-01 09:26 | 46.23279 | 16.88394 | 38420 ft | 404 kts | 274° |
| 2026-05-01 09:27 | 46.22076 | 16.76425 | 38419 ft | 400 kts | 275° |
| 2026-05-01 09:28 | 46.21279 | 16.68532 | 38419 ft | 400 kts | 275° |
| 2026-05-01 09:28 | 46.20465 | 16.60543 | 38419 ft | 401 kts | 275° |
| 2026-05-01 09:29 | 46.19236 | 16.48656 | 38419 ft | 400 kts | 275° |
| 2026-05-01 09:30 | 46.17989 | 16.36735 | 38419 ft | 400 kts | 275° |
| 2026-05-01 09:30 | 46.16723 | 16.24781 | 38419 ft | 402 kts | 274° |
| 2026-05-01 09:31 | 46.15877 | 16.16865 | 38419 ft | 402 kts | 274° |
| 2026-05-01 09:32 | 46.14592 | 16.04918 | 38419 ft | 402 kts | 274° |
| 2026-05-01 09:32 | 46.13298 | 15.92994 | 38419 ft | 401 kts | 274° |
| 2026-05-01 09:33 | 46.12429 | 15.85046 | 38419 ft | 401 kts | 274° |
| 2026-05-01 09:34 | 46.11108 | 15.73109 | 38419 ft | 401 kts | 274° |
| 2026-05-01 09:34 | 46.09777 | 15.61231 | 38419 ft | 401 kts | 274° |
| 2026-05-01 09:35 | 46.08437 | 15.49339 | 38419 ft | 401 kts | 274° |
| 2026-05-01 09:36 | 46.07541 | 15.41440 | 38419 ft | 401 kts | 274° |
| 2026-05-01 09:36 | 46.06630 | 15.33494 | 38419 ft | 401 kts | 273° |
| 2026-05-01 09:37 | 46.05717 | 15.25588 | 38418 ft | 402 kts | 273° |
| 2026-05-01 09:37 | 46.04328 | 15.13619 | 38408 ft | 405 kts | 273° |
| 2026-05-01 09:38 | 46.02929 | 15.01647 | 38418 ft | 404 kts | 272° |
| 2026-05-01 09:39 | 46.01521 | 14.89727 | 38419 ft | 401 kts | 272° |
| 2026-05-01 09:39 | 46.00580 | 14.81842 | 38419 ft | 400 kts | 272° |
| 2026-05-01 09:40 | 45.99158 | 14.70024 | 38419 ft | 400 kts | 272° |
| 2026-05-01 09:41 | 45.98202 | 14.62127 | 38419 ft | 400 kts | 272° |
| 2026-05-01 09:41 | 45.96767 | 14.50341 | 38420 ft | 400 kts | 272° |
| 2026-05-01 09:42 | 45.95801 | 14.42463 | 38420 ft | 400 kts | 272° |
| 2026-05-01 09:43 | 45.93845 | 14.26707 | 38419 ft | 401 kts | 271° |
| 2026-05-01 09:43 | 45.92859 | 14.18836 | 38419 ft | 401 kts | 271° |
| 2026-05-01 09:44 | 45.91375 | 14.07067 | 38417 ft | 401 kts | 271° |
| 2026-05-01 09:45 | 45.90373 | 13.99180 | 38413 ft | 401 kts | 271° |
| 2026-05-01 09:45 | 45.88841 | 13.87421 | 38400 ft | 401 kts | 271° |
| 2026-05-01 09:46 | 45.87815 | 13.79571 | 38397 ft | 401 kts | 271° |
| 2026-05-01 09:46 | 45.86792 | 13.71709 | 38395 ft | 401 kts | 271° |
| 2026-05-01 09:47 | 45.85769 | 13.63872 | 38394 ft | 401 kts | 271° |
| 2026-05-01 09:47 | 45.84828 | 13.56023 | 38394 ft | 397 kts | 273° |
| 2026-05-01 09:48 | 45.84020 | 13.48152 | 38394 ft | 397 kts | 273° |
| 2026-05-01 09:48 | 45.83213 | 13.40374 | 38394 ft | 397 kts | 273° |
| 2026-05-01 09:49 | 45.82388 | 13.32511 | 38397 ft | 398 kts | 272° |
| 2026-05-01 09:49 | 45.81553 | 13.24641 | 38403 ft | 399 kts | 272° |
| 2026-05-01 09:50 | 45.80722 | 13.16822 | 38411 ft | 398 kts | 272° |
| 2026-05-01 09:50 | 45.79895 | 13.09028 | 38417 ft | 395 kts | 271° |
| 2026-05-01 09:51 | 45.79063 | 13.01269 | 38419 ft | 394 kts | 270° |
| 2026-05-01 09:51 | 45.78222 | 12.93503 | 38419 ft | 393 kts | 269° |
| 2026-05-01 09:52 | 45.77374 | 12.85800 | 38420 ft | 392 kts | 269° |
| 2026-05-01 09:52 | 45.76523 | 12.78099 | 38418 ft | 392 kts | 269° |
| 2026-05-01 09:53 | 45.75671 | 12.70408 | 38419 ft | 392 kts | 269° |
| 2026-05-01 09:53 | 45.74810 | 12.62682 | 38418 ft | 392 kts | 269° |
| 2026-05-01 09:54 | 45.73945 | 12.54963 | 38418 ft | 392 kts | 269° |
| 2026-05-01 09:54 | 45.73072 | 12.47247 | 38418 ft | 392 kts | 269° |
| 2026-05-01 09:55 | 45.72201 | 12.39574 | 38418 ft | 392 kts | 269° |
| 2026-05-01 09:55 | 45.71320 | 12.31863 | 38419 ft | 392 kts | 269° |
| 2026-05-01 09:56 | 45.70435 | 12.24163 | 38419 ft | 392 kts | 269° |
| 2026-05-01 09:56 | 45.69544 | 12.16459 | 38418 ft | 392 kts | 269° |
| 2026-05-01 09:57 | 45.68649 | 12.08776 | 38413 ft | 392 kts | 269° |
| 2026-05-01 09:57 | 45.67742 | 12.01047 | 38406 ft | 392 kts | 269° |
| 2026-05-01 09:58 | 45.66834 | 11.93365 | 38400 ft | 392 kts | 269° |
| 2026-05-01 09:58 | 45.65917 | 11.85670 | 38399 ft | 393 kts | 269° |
| 2026-05-01 09:59 | 45.64996 | 11.77966 | 38401 ft | 392 kts | 269° |
| 2026-05-01 09:59 | 45.64170 | 11.70308 | 38406 ft | 389 kts | 272° |
| 2026-05-01 10:00 | 45.63861 | 11.62669 | 38410 ft | 383 kts | 277° |
| 2026-05-01 10:00 | 45.63938 | 11.55062 | 38415 ft | 383 kts | 278° |
| 2026-05-01 10:01 | 45.64031 | 11.47468 | 38417 ft | 383 kts | 278° |
| 2026-05-01 10:01 | 45.64120 | 11.39889 | 38418 ft | 382 kts | 278° |
| 2026-05-01 10:02 | 45.64202 | 11.32281 | 38419 ft | 383 kts | 278° |
| 2026-05-01 10:02 | 45.64279 | 11.24689 | 38419 ft | 383 kts | 278° |
| 2026-05-01 10:03 | 45.64349 | 11.17074 | 38419 ft | 383 kts | 278° |
| 2026-05-01 10:03 | 45.64415 | 11.09462 | 38419 ft | 383 kts | 278° |
| 2026-05-01 10:04 | 45.64481 | 11.01857 | 38419 ft | 383 kts | 278° |
| 2026-05-01 10:04 | 45.64554 | 10.94228 | 38418 ft | 382 kts | 277° |
| 2026-05-01 10:05 | 45.64614 | 10.86674 | 38419 ft | 382 kts | 276° |
| 2026-05-01 10:05 | 45.64669 | 10.79072 | 38263 ft | 376 kts | 275° |
| 2026-05-01 10:06 | 45.64695 | 10.75384 | 37404 ft | 375 kts | 275° |
| 2026-05-01 10:06 | 45.64722 | 10.71683 | 35907 ft | 386 kts | 275° |
| 2026-05-01 10:06 | 45.64751 | 10.67847 | 34293 ft | 395 kts | 275° |
| 2026-05-01 10:06 | 45.64780 | 10.63954 | 32774 ft | 399 kts | 275° |
| 2026-05-01 10:07 | 45.64806 | 10.60023 | 31448 ft | 397 kts | 274° |
| 2026-05-01 10:07 | 45.64821 | 10.56154 | 30432 ft | 387 kts | 274° |
| 2026-05-01 10:07 | 45.64835 | 10.52352 | 29386 ft | 380 kts | 274° |
| 2026-05-01 10:07 | 45.64848 | 10.48627 | 28301 ft | 375 kts | 273° |
| 2026-05-01 10:08 | 45.64793 | 10.41336 | 26123 ft | 365 kts | 271° |
| 2026-05-01 10:08 | 45.64751 | 10.37771 | 25050 ft | 361 kts | 271° |
| 2026-05-01 10:08 | 45.64705 | 10.34202 | 24064 ft | 353 kts | 270° |
| 2026-05-01 10:09 | 45.64657 | 10.30813 | 23716 ft | 339 kts | 270° |
| 2026-05-01 10:09 | 45.64608 | 10.27448 | 23418 ft | 336 kts | 270° |
| 2026-05-01 10:09 | 45.64560 | 10.24101 | 23107 ft | 337 kts | 270° |
| 2026-05-01 10:09 | 45.64512 | 10.20792 | 22786 ft | 335 kts | 270° |
| 2026-05-01 10:10 | 45.64462 | 10.17461 | 22453 ft | 333 kts | 270° |
| 2026-05-01 10:10 | 45.64412 | 10.14178 | 22121 ft | 331 kts | 270° |
| 2026-05-01 10:10 | 45.63942 | 10.07632 | 21200 ft | 333 kts | 262° |
| 2026-05-01 10:11 | 45.63560 | 10.04387 | 20607 ft | 336 kts | 262° |
| 2026-05-01 10:11 | 45.63170 | 10.01066 | 19845 ft | 342 kts | 262° |
| 2026-05-01 10:11 | 45.62781 | 9.97700 | 19227 ft | 344 kts | 262° |
| 2026-05-01 10:11 | 45.62397 | 9.94339 | 18726 ft | 341 kts | 262° |
| 2026-05-01 10:12 | 45.62017 | 9.91001 | 18226 ft | 339 kts | 262° |
| 2026-05-01 10:12 | 45.61770 | 9.88821 | 17896 ft | 338 kts | 262° |
| 2026-05-01 10:12 | 45.60898 | 9.81105 | 16721 ft | 334 kts | 262° |
| 2026-05-01 10:13 | 45.60529 | 9.77845 | 16224 ft | 333 kts | 261° |
| 2026-05-01 10:13 | 45.60160 | 9.74594 | 15728 ft | 331 kts | 261° |
| 2026-05-01 10:13 | 45.59796 | 9.71396 | 15239 ft | 330 kts | 261° |
| 2026-05-01 10:14 | 45.59061 | 9.64958 | 14251 ft | 327 kts | 261° |
| 2026-05-01 10:14 | 45.58693 | 9.61743 | 13756 ft | 326 kts | 261° |
| 2026-05-01 10:14 | 45.58328 | 9.58567 | 13267 ft | 325 kts | 261° |
| 2026-05-01 10:14 | 45.57967 | 9.55430 | 12786 ft | 324 kts | 261° |
| 2026-05-01 10:15 | 45.57600 | 9.52250 | 12298 ft | 323 kts | 261° |
| 2026-05-01 10:15 | 45.57115 | 9.49138 | 11821 ft | 321 kts | 255° |
| 2026-05-01 10:15 | 45.56490 | 9.46082 | 11345 ft | 320 kts | 253° |
| 2026-05-01 10:15 | 45.55844 | 9.43061 | 10870 ft | 319 kts | 253° |
| 2026-05-01 10:16 | 45.55196 | 9.40038 | 10393 ft | 317 kts | 253° |
| 2026-05-01 10:16 | 45.54562 | 9.37073 | 9922 ft | 316 kts | 253° |
| 2026-05-01 10:16 | 45.53298 | 9.31106 | 8969 ft | 312 kts | 252° |
| 2026-05-01 10:17 | 45.52676 | 9.28130 | 8544 ft | 309 kts | 252° |
| 2026-05-01 10:17 | 45.51515 | 9.22535 | 8403 ft | 279 kts | 252° |
| 2026-05-01 10:17 | 45.50976 | 9.19933 | 8147 ft | 273 kts | 252° |
| 2026-05-01 10:18 | 45.49898 | 9.14691 | 7307 ft | 273 kts | 252° |
| 2026-05-01 10:18 | 45.49372 | 9.12120 | 6939 ft | 272 kts | 252° |
| 2026-05-01 10:18 | 45.48840 | 9.09514 | 6560 ft | 270 kts | 252° |
| 2026-05-01 10:19 | 45.48321 | 9.06964 | 6176 ft | 269 kts | 253° |
| 2026-05-01 10:19 | 45.47780 | 9.04394 | 5772 ft | 270 kts | 253° |
| 2026-05-01 10:19 | 45.47212 | 9.01859 | 5349 ft | 271 kts | 253° |
| 2026-05-01 10:20 | 45.46058 | 8.96769 | 4600 ft | 268 kts | 252° |
| 2026-05-01 10:20 | 45.45499 | 8.94273 | 4301 ft | 264 kts | 253° |
| 2026-05-01 10:20 | 45.44945 | 8.91789 | 4122 ft | 256 kts | 252° |
| 2026-05-01 10:20 | 45.44421 | 8.89425 | 3961 ft | 247 kts | 253° |
| 2026-05-01 10:21 | 45.44005 | 8.87111 | 3789 ft | 239 kts | 268° |
| 2026-05-01 10:21 | 45.45321 | 8.83089 | 3288 ft | 227 kts | 318° |
| 2026-05-01 10:21 | 45.46501 | 8.81613 | 3064 ft | 227 kts | 321° |
| 2026-05-01 10:22 | 45.48902 | 8.78813 | 3010 ft | 206 kts | 322° |
| 2026-05-01 10:22 | 45.51040 | 8.76837 | 3054 ft | 160 kts | 341° |
| 2026-05-01 10:23 | 45.52095 | 8.76405 | 2668 ft | 157 kts | 348° |
| 2026-05-01 10:23 | 45.54087 | 8.75821 | 2177 ft | 137 kts | 351° |
| 2026-05-01 10:23 | 45.55013 | 8.75569 | 2004 ft | 136 kts | 351° |
| 2026-05-01 10:24 | 45.56874 | 8.75054 | 1653 ft | 136 kts | 350° |
| 2026-05-01 10:24 | 45.58724 | 8.74540 | 1299 ft | 135 kts | 351° |
| 2026-05-01 10:25 | 45.60558 | 8.74042 | 928 ft | 134 kts | 350° |
| 2026-05-01 10:25 | 45.62362 | 8.73528 | 712 ft | 117 kts | 352° |
| 2026-05-01 10:26 | 45.62967 | 8.73362 | 723 ft | 52 kts | 346° |
| 2026-05-01 10:26 | 45.63131 | 8.73250 | 728 ft | 20 kts | 320° |
| 2026-05-01 10:26 | 45.63284 | 8.73010 | 733 ft | 14 kts | 305° |
| 2026-05-01 10:27 | 45.63378 | 8.72813 | 738 ft | 13 kts | 304° |
| 2026-05-01 10:27 | 45.63391 | 8.72493 | 742 ft | 20 kts | 259° |
| 2026-05-01 10:28 | 45.63362 | 8.72278 | 745 ft | 23 kts | 257° |
| 2026-05-01 10:28 | 45.63322 | 8.72007 | 750 ft | 5 kts | 257° |
| 2026-05-01 10:28 | 45.63286 | 8.71965 | 749 ft | 13 kts | 177° |
| 2026-05-01 10:29 | 45.63066 | 8.72046 | 744 ft | 11 kts | 174° |
| 2026-05-01 10:29 | 45.62980 | 8.72058 | 742 ft | 13 kts | 174° |
| 2026-05-01 10:30 | 45.62770 | 8.72109 | 737 ft | 16 kts | 169° |
| 2026-05-01 10:30 | 45.62655 | 8.71920 | 739 ft | 12 kts | 266° |
| 2026-05-01 10:31 | 45.62554 | 8.71856 | 740 ft | 9 kts | 165° |
| 2026-05-01 10:31 | 45.62407 | 8.71929 | 738 ft | 13 kts | 122° |
| 2026-05-01 10:32 | 45.62415 | 8.72003 | 737 ft | 2 kts | 78° |
| 2026-05-01 10:32 | 45.62416 | 8.72004 | 737 ft | 0 kts | 78° |